sensor_id;sensor_type;location;lat;lon;timestamp;P1;durP1;ratioP1;P2;durP2;ratioP2
59074;SDS011;44860;53.020;6.738;2023-09-19T00:00:37;6.15;;;1.77;;
59074;SDS011;44860;53.020;6.738;2023-09-19T00:03:03;9.25;;;2.28;;
59074;SDS011;44860;53.020;6.738;2023-09-19T00:05:33;7.57;;;1.70;;
59074;SDS011;44860;53.020;6.738;2023-09-19T00:08:00;9.70;;;2.00;;
59074;SDS011;44860;53.020;6.738;2023-09-19T00:10:29;8.40;;;1.85;;
59074;SDS011;44860;53.020;6.738;2023-09-19T00:13:00;9.18;;;2.15;;
59074;SDS011;44860;53.020;6.738;2023-09-19T00:15:40;8.35;;;2.00;;
59074;SDS011;44860;53.020;6.738;2023-09-19T00:18:13;5.88;;;1.80;;
59074;SDS011;44860;53.020;6.738;2023-09-19T00:20:41;8.30;;;2.35;;
59074;SDS011;44860;53.020;6.738;2023-09-19T00:23:07;8.75;;;2.00;;
59074;SDS011;44860;53.020;6.738;2023-09-19T00:25:36;8.82;;;2.40;;
59074;SDS011;44860;53.020;6.738;2023-09-19T00:28:02;8.00;;;2.20;;
59074;SDS011;44860;53.020;6.738;2023-09-19T00:30:29;9.60;;;2.40;;
59074;SDS011;44860;53.020;6.738;2023-09-19T00:32:55;9.00;;;2.13;;
59074;SDS011;44860;53.020;6.738;2023-09-19T00:35:22;7.72;;;1.83;;
59074;SDS011;44860;53.020;6.738;2023-09-19T00:37:51;9.13;;;2.47;;
59074;SDS011;44860;53.020;6.738;2023-09-19T00:40:17;8.65;;;2.47;;
59074;SDS011;44860;53.020;6.738;2023-09-19T00:42:43;10.63;;;2.22;;
59074;SDS011;44860;53.020;6.738;2023-09-19T00:45:11;9.95;;;2.33;;
59074;SDS011;44860;53.020;6.738;2023-09-19T00:47:39;10.40;;;2.47;;
59074;SDS011;44860;53.020;6.738;2023-09-19T00:50:09;11.35;;;2.30;;
59074;SDS011;44860;53.020;6.738;2023-09-19T00:52:38;9.05;;;2.10;;
59074;SDS011;44860;53.020;6.738;2023-09-19T00:55:07;10.48;;;2.42;;
59074;SDS011;44860;53.020;6.738;2023-09-19T00:57:34;13.63;;;2.50;;
59074;SDS011;44860;53.020;6.738;2023-09-19T01:00:02;12.35;;;2.10;;
59074;SDS011;44860;53.020;6.738;2023-09-19T01:02:32;10.27;;;2.97;;
59074;SDS011;44860;53.020;6.738;2023-09-19T01:04:58;9.43;;;2.58;;
59074;SDS011;44860;53.020;6.738;2023-09-19T01:07:29;12.00;;;2.28;;
59074;SDS011;44860;53.020;6.738;2023-09-19T01:09:57;10.30;;;2.50;;
59074;SDS011;44860;53.020;6.738;2023-09-19T01:12:30;8.95;;;2.00;;
59074;SDS011;44860;53.020;6.738;2023-09-19T01:15:51;10.20;;;2.35;;
59074;SDS011;44860;53.020;6.738;2023-09-19T01:18:11;9.32;;;2.40;;
59074;SDS011;44860;53.020;6.738;2023-09-19T01:32:03;11.40;;;2.45;;
59074;SDS011;44860;53.020;6.738;2023-09-19T01:35:13;8.45;;;2.83;;
59074;SDS011;44860;53.020;6.738;2023-09-19T01:37:23;8.05;;;2.25;;
59074;SDS011;44860;53.020;6.738;2023-09-19T01:40:04;10.10;;;2.17;;
59074;SDS011;44860;53.020;6.738;2023-09-19T01:48:05;10.70;;;2.20;;
59074;SDS011;44860;53.020;6.738;2023-09-19T01:51:00;10.90;;;2.45;;
59074;SDS011;44860;53.020;6.738;2023-09-19T01:53:44;10.00;;;2.22;;
59074;SDS011;44860;53.020;6.738;2023-09-19T01:56:32;10.57;;;2.30;;
59074;SDS011;44860;53.020;6.738;2023-09-19T01:59:13;11.43;;;2.35;;
59074;SDS011;44860;53.020;6.738;2023-09-19T02:01:46;8.68;;;2.50;;
59074;SDS011;44860;53.020;6.738;2023-09-19T02:04:14;8.73;;;2.50;;
59074;SDS011;44860;53.020;6.738;2023-09-19T02:06:40;11.88;;;2.65;;
59074;SDS011;44860;53.020;6.738;2023-09-19T02:09:07;7.60;;;2.25;;
59074;SDS011;44860;53.020;6.738;2023-09-19T02:11:34;8.38;;;2.40;;
59074;SDS011;44860;53.020;6.738;2023-09-19T02:14:00;8.70;;;2.47;;
59074;SDS011;44860;53.020;6.738;2023-09-19T02:16:27;7.63;;;2.35;;
59074;SDS011;44860;53.020;6.738;2023-09-19T02:18:54;9.63;;;2.58;;
59074;SDS011;44860;53.020;6.738;2023-09-19T02:21:19;12.30;;;2.88;;
59074;SDS011;44860;53.020;6.738;2023-09-19T02:23:46;9.07;;;2.47;;
59074;SDS011;44860;53.020;6.738;2023-09-19T02:26:12;9.23;;;2.03;;
59074;SDS011;44860;53.020;6.738;2023-09-19T02:28:39;12.00;;;2.45;;
59074;SDS011;44860;53.020;6.738;2023-09-19T02:31:04;11.50;;;2.70;;
59074;SDS011;44860;53.020;6.738;2023-09-19T02:33:30;12.20;;;3.03;;
59074;SDS011;44860;53.020;6.738;2023-09-19T02:36:00;9.88;;;2.28;;
59074;SDS011;44860;53.020;6.738;2023-09-19T02:38:25;14.57;;;2.35;;
59074;SDS011;44860;53.020;6.738;2023-09-19T02:40:52;11.15;;;2.95;;
59074;SDS011;44860;53.020;6.738;2023-09-19T02:43:18;11.63;;;2.80;;
59074;SDS011;44860;53.020;6.738;2023-09-19T02:45:45;12.13;;;3.17;;
59074;SDS011;44860;53.020;6.738;2023-09-19T02:48:11;12.05;;;3.08;;
59074;SDS011;44860;53.020;6.738;2023-09-19T02:50:37;14.00;;;2.50;;
59074;SDS011;44860;53.020;6.738;2023-09-19T02:53:05;9.77;;;2.63;;
59074;SDS011;44860;53.020;6.738;2023-09-19T02:55:31;9.38;;;2.60;;
59074;SDS011;44860;53.020;6.738;2023-09-19T02:57:57;13.50;;;2.70;;
59074;SDS011;44860;53.020;6.738;2023-09-19T03:00:23;9.23;;;2.70;;
59074;SDS011;44860;53.020;6.738;2023-09-19T03:02:49;11.40;;;2.97;;
59074;SDS011;44860;53.020;6.738;2023-09-19T03:05:18;10.57;;;2.60;;
59074;SDS011;44860;53.020;6.738;2023-09-19T03:07:44;11.25;;;2.85;;
59074;SDS011;44860;53.020;6.738;2023-09-19T03:10:12;12.00;;;2.88;;
59074;SDS011;44860;53.020;6.738;2023-09-19T03:12:40;12.05;;;2.70;;
59074;SDS011;44860;53.020;6.738;2023-09-19T03:15:06;9.75;;;2.63;;
59074;SDS011;44860;53.020;6.738;2023-09-19T03:17:33;11.80;;;2.63;;
59074;SDS011;44860;53.020;6.738;2023-09-19T03:20:00;8.48;;;2.40;;
59074;SDS011;44860;53.020;6.738;2023-09-19T03:22:27;11.15;;;2.53;;
59074;SDS011;44860;53.020;6.738;2023-09-19T03:24:53;11.73;;;2.33;;
59074;SDS011;44860;53.020;6.738;2023-09-19T03:27:19;11.35;;;2.50;;
59074;SDS011;44860;53.020;6.738;2023-09-19T03:29:45;11.70;;;2.58;;
59074;SDS011;44860;53.020;6.738;2023-09-19T03:32:11;11.95;;;2.70;;
59074;SDS011;44860;53.020;6.738;2023-09-19T03:34:37;10.00;;;2.20;;
59074;SDS011;44860;53.020;6.738;2023-09-19T03:37:08;10.18;;;2.60;;
59074;SDS011;44860;53.020;6.738;2023-09-19T03:39:36;10.93;;;2.47;;
59074;SDS011;44860;53.020;6.738;2023-09-19T03:42:02;7.55;;;2.33;;
59074;SDS011;44860;53.020;6.738;2023-09-19T03:44:29;9.75;;;2.70;;
59074;SDS011;44860;53.020;6.738;2023-09-19T03:46:55;12.00;;;3.35;;
59074;SDS011;44860;53.020;6.738;2023-09-19T03:49:22;11.80;;;2.40;;
59074;SDS011;44860;53.020;6.738;2023-09-19T03:51:48;12.25;;;2.60;;
59074;SDS011;44860;53.020;6.738;2023-09-19T03:54:13;9.07;;;2.80;;
59074;SDS011;44860;53.020;6.738;2023-09-19T03:56:40;11.35;;;2.63;;
59074;SDS011;44860;53.020;6.738;2023-09-19T03:59:05;8.77;;;2.40;;
59074;SDS011;44860;53.020;6.738;2023-09-19T04:01:33;9.07;;;2.70;;
59074;SDS011;44860;53.020;6.738;2023-09-19T04:03:59;11.65;;;2.70;;
59074;SDS011;44860;53.020;6.738;2023-09-19T04:06:33;8.75;;;2.47;;
59074;SDS011;44860;53.020;6.738;2023-09-19T04:09:00;8.27;;;2.25;;
59074;SDS011;44860;53.020;6.738;2023-09-19T04:11:26;11.32;;;2.50;;
59074;SDS011;44860;53.020;6.738;2023-09-19T04:13:52;8.93;;;2.42;;
59074;SDS011;44860;53.020;6.738;2023-09-19T04:16:17;11.10;;;2.97;;
59074;SDS011;44860;53.020;6.738;2023-09-19T04:18:43;8.52;;;2.40;;
59074;SDS011;44860;53.020;6.738;2023-09-19T04:21:09;11.82;;;2.40;;
59074;SDS011;44860;53.020;6.738;2023-09-19T04:23:34;9.20;;;2.40;;
59074;SDS011;44860;53.020;6.738;2023-09-19T04:26:00;8.73;;;2.60;;
59074;SDS011;44860;53.020;6.738;2023-09-19T04:28:26;10.82;;;2.20;;
59074;SDS011;44860;53.020;6.738;2023-09-19T04:30:53;10.30;;;2.42;;
59074;SDS011;44860;53.020;6.738;2023-09-19T04:33:20;7.85;;;2.42;;
59074;SDS011;44860;53.020;6.738;2023-09-19T04:35:48;9.82;;;2.45;;
59074;SDS011;44860;53.020;6.738;2023-09-19T04:38:20;8.00;;;2.50;;
59074;SDS011;44860;53.020;6.738;2023-09-19T04:40:46;12.05;;;2.85;;
59074;SDS011;44860;53.020;6.738;2023-09-19T04:43:12;10.82;;;2.65;;
59074;SDS011;44860;53.020;6.738;2023-09-19T04:45:38;10.77;;;2.92;;
59074;SDS011;44860;53.020;6.738;2023-09-19T04:48:05;11.38;;;4.18;;
59074;SDS011;44860;53.020;6.738;2023-09-19T04:50:34;12.13;;;3.25;;
59074;SDS011;44860;53.020;6.738;2023-09-19T04:53:00;10.85;;;2.63;;
59074;SDS011;44860;53.020;6.738;2023-09-19T04:55:26;11.30;;;2.95;;
59074;SDS011;44860;53.020;6.738;2023-09-19T04:57:52;13.73;;;3.05;;
59074;SDS011;44860;53.020;6.738;2023-09-19T05:00:22;11.43;;;2.90;;
59074;SDS011;44860;53.020;6.738;2023-09-19T05:02:55;7.63;;;2.55;;
59074;SDS011;44860;53.020;6.738;2023-09-19T05:05:21;11.82;;;2.65;;
59074;SDS011;44860;53.020;6.738;2023-09-19T05:07:48;11.23;;;2.90;;
59074;SDS011;44860;53.020;6.738;2023-09-19T05:10:14;16.25;;;3.42;;
59074;SDS011;44860;53.020;6.738;2023-09-19T05:12:41;12.30;;;3.15;;
59074;SDS011;44860;53.020;6.738;2023-09-19T05:15:07;11.10;;;3.10;;
59074;SDS011;44860;53.020;6.738;2023-09-19T05:17:33;10.85;;;3.30;;
59074;SDS011;44860;53.020;6.738;2023-09-19T05:20:00;11.30;;;3.35;;
59074;SDS011;44860;53.020;6.738;2023-09-19T05:22:30;9.02;;;2.70;;
59074;SDS011;44860;53.020;6.738;2023-09-19T05:24:57;15.40;;;3.28;;
59074;SDS011;44860;53.020;6.738;2023-09-19T05:27:23;11.43;;;2.80;;
59074;SDS011;44860;53.020;6.738;2023-09-19T05:29:49;10.60;;;2.65;;
59074;SDS011;44860;53.020;6.738;2023-09-19T05:32:18;11.63;;;2.90;;
59074;SDS011;44860;53.020;6.738;2023-09-19T05:34:44;9.60;;;3.00;;
59074;SDS011;44860;53.020;6.738;2023-09-19T05:37:12;10.25;;;3.20;;
59074;SDS011;44860;53.020;6.738;2023-09-19T05:39:41;11.50;;;3.42;;
59074;SDS011;44860;53.020;6.738;2023-09-19T05:42:07;14.00;;;3.50;;
59074;SDS011;44860;53.020;6.738;2023-09-19T05:44:33;11.57;;;2.80;;
59074;SDS011;44860;53.020;6.738;2023-09-19T05:46:59;13.52;;;3.40;;
59074;SDS011;44860;53.020;6.738;2023-09-19T05:49:25;11.00;;;2.80;;
59074;SDS011;44860;53.020;6.738;2023-09-19T05:51:50;11.77;;;3.08;;
59074;SDS011;44860;53.020;6.738;2023-09-19T05:54:19;13.00;;;3.13;;
59074;SDS011;44860;53.020;6.738;2023-09-19T05:56:45;17.38;;;3.55;;
59074;SDS011;44860;53.020;6.738;2023-09-19T05:59:12;11.02;;;3.28;;
59074;SDS011;44860;53.020;6.738;2023-09-19T06:01:40;14.25;;;3.55;;
59074;SDS011;44860;53.020;6.738;2023-09-19T06:04:07;11.15;;;2.85;;
59074;SDS011;44860;53.020;6.738;2023-09-19T06:06:33;11.93;;;3.25;;
59074;SDS011;44860;53.020;6.738;2023-09-19T06:09:05;12.55;;;3.20;;
59074;SDS011;44860;53.020;6.738;2023-09-19T06:11:33;13.90;;;3.50;;
59074;SDS011;44860;53.020;6.738;2023-09-19T06:14:03;11.80;;;3.05;;
59074;SDS011;44860;53.020;6.738;2023-09-19T06:16:30;12.05;;;2.90;;
59074;SDS011;44860;53.020;6.738;2023-09-19T06:18:57;11.10;;;3.25;;
59074;SDS011;44860;53.020;6.738;2023-09-19T06:21:25;14.35;;;3.67;;
59074;SDS011;44860;53.020;6.738;2023-09-19T06:23:52;14.35;;;2.97;;
59074;SDS011;44860;53.020;6.738;2023-09-19T06:26:23;12.82;;;3.00;;
59074;SDS011;44860;53.020;6.738;2023-09-19T06:28:48;11.57;;;3.08;;
59074;SDS011;44860;53.020;6.738;2023-09-19T06:31:14;14.25;;;3.10;;
59074;SDS011;44860;53.020;6.738;2023-09-19T06:33:40;11.73;;;2.72;;
59074;SDS011;44860;53.020;6.738;2023-09-19T06:36:06;14.10;;;3.38;;
59074;SDS011;44860;53.020;6.738;2023-09-19T06:38:32;10.32;;;3.00;;
59074;SDS011;44860;53.020;6.738;2023-09-19T06:41:04;14.00;;;3.17;;
59074;SDS011;44860;53.020;6.738;2023-09-19T06:43:33;15.13;;;3.30;;
59074;SDS011;44860;53.020;6.738;2023-09-19T06:46:02;14.82;;;3.10;;
59074;SDS011;44860;53.020;6.738;2023-09-19T06:48:29;9.18;;;2.45;;
59074;SDS011;44860;53.020;6.738;2023-09-19T06:50:55;12.32;;;2.80;;
59074;SDS011;44860;53.020;6.738;2023-09-19T06:53:23;9.73;;;2.80;;
59074;SDS011;44860;53.020;6.738;2023-09-19T06:55:52;13.90;;;2.75;;
59074;SDS011;44860;53.020;6.738;2023-09-19T06:58:19;11.32;;;2.65;;
59074;SDS011;44860;53.020;6.738;2023-09-19T07:00:45;12.38;;;2.83;;
59074;SDS011;44860;53.020;6.738;2023-09-19T07:03:13;11.93;;;2.67;;
59074;SDS011;44860;53.020;6.738;2023-09-19T07:05:41;15.68;;;3.40;;
59074;SDS011;44860;53.020;6.738;2023-09-19T07:08:08;11.05;;;3.00;;
59074;SDS011;44860;53.020;6.738;2023-09-19T07:10:35;13.90;;;2.97;;
59074;SDS011;44860;53.020;6.738;2023-09-19T07:15:28;12.65;;;2.83;;
59074;SDS011;44860;53.020;6.738;2023-09-19T07:17:58;11.82;;;2.92;;
59074;SDS011;44860;53.020;6.738;2023-09-19T07:20:25;13.95;;;3.28;;
59074;SDS011;44860;53.020;6.738;2023-09-19T07:22:52;12.02;;;3.00;;
59074;SDS011;44860;53.020;6.738;2023-09-19T07:25:20;14.88;;;3.13;;
59074;SDS011;44860;53.020;6.738;2023-09-19T07:27:46;12.73;;;2.95;;
59074;SDS011;44860;53.020;6.738;2023-09-19T07:30:12;10.38;;;2.97;;
59074;SDS011;44860;53.020;6.738;2023-09-19T07:32:38;13.25;;;3.08;;
59074;SDS011;44860;53.020;6.738;2023-09-19T07:35:05;12.45;;;2.90;;
59074;SDS011;44860;53.020;6.738;2023-09-19T07:37:32;12.57;;;2.95;;
59074;SDS011;44860;53.020;6.738;2023-09-19T07:40:04;10.55;;;2.72;;
59074;SDS011;44860;53.020;6.738;2023-09-19T07:42:34;13.00;;;2.90;;
59074;SDS011;44860;53.020;6.738;2023-09-19T07:45:04;14.23;;;3.10;;
59074;SDS011;44860;53.020;6.738;2023-09-19T07:47:30;13.98;;;3.47;;
59074;SDS011;44860;53.020;6.738;2023-09-19T07:49:57;12.90;;;3.00;;
59074;SDS011;44860;53.020;6.738;2023-09-19T07:52:24;12.07;;;2.45;;
59074;SDS011;44860;53.020;6.738;2023-09-19T07:54:52;11.13;;;2.83;;
59074;SDS011;44860;53.020;6.738;2023-09-19T07:57:18;13.43;;;3.33;;
59074;SDS011;44860;53.020;6.738;2023-09-19T07:59:45;14.68;;;2.90;;
59074;SDS011;44860;53.020;6.738;2023-09-19T08:02:11;10.18;;;3.15;;
59074;SDS011;44860;53.020;6.738;2023-09-19T08:04:44;12.73;;;2.75;;
59074;SDS011;44860;53.020;6.738;2023-09-19T08:07:15;12.23;;;2.90;;
59074;SDS011;44860;53.020;6.738;2023-09-19T08:09:40;12.57;;;2.60;;
59074;SDS011;44860;53.020;6.738;2023-09-19T08:12:07;12.38;;;3.20;;
59074;SDS011;44860;53.020;6.738;2023-09-19T08:14:35;10.15;;;2.80;;
59074;SDS011;44860;53.020;6.738;2023-09-19T08:17:02;12.88;;;2.97;;
59074;SDS011;44860;53.020;6.738;2023-09-19T08:19:28;15.00;;;2.80;;
59074;SDS011;44860;53.020;6.738;2023-09-19T08:21:57;10.82;;;2.70;;
59074;SDS011;44860;53.020;6.738;2023-09-19T08:24:24;14.93;;;3.05;;
59074;SDS011;44860;53.020;6.738;2023-09-19T08:26:57;9.45;;;2.90;;
59074;SDS011;44860;53.020;6.738;2023-09-19T08:29:23;13.00;;;3.00;;
59074;SDS011;44860;53.020;6.738;2023-09-19T08:31:56;13.02;;;3.13;;
59074;SDS011;44860;53.020;6.738;2023-09-19T08:34:26;13.73;;;2.88;;
59074;SDS011;44860;53.020;6.738;2023-09-19T08:36:52;9.80;;;3.05;;
59074;SDS011;44860;53.020;6.738;2023-09-19T08:39:21;13.48;;;3.13;;
59074;SDS011;44860;53.020;6.738;2023-09-19T08:41:47;13.52;;;3.40;;
59074;SDS011;44860;53.020;6.738;2023-09-19T08:44:13;16.83;;;3.83;;
59074;SDS011;44860;53.020;6.738;2023-09-19T08:46:40;13.45;;;3.10;;
59074;SDS011;44860;53.020;6.738;2023-09-19T08:52:22;13.38;;;3.50;;
59074;SDS011;44860;53.020;6.738;2023-09-19T08:54:53;11.98;;;3.53;;
59074;SDS011;44860;53.020;6.738;2023-09-19T08:57:24;11.75;;;3.67;;
59074;SDS011;44860;53.020;6.738;2023-09-19T08:59:54;13.40;;;4.00;;
59074;SDS011;44860;53.020;6.738;2023-09-19T09:02:21;13.70;;;3.50;;
59074;SDS011;44860;53.020;6.738;2023-09-19T09:04:48;14.65;;;3.88;;
59074;SDS011;44860;53.020;6.738;2023-09-19T09:07:15;11.18;;;3.30;;
59074;SDS011;44860;53.020;6.738;2023-09-19T09:09:44;13.15;;;3.53;;
59074;SDS011;44860;53.020;6.738;2023-09-19T09:12:14;11.73;;;3.42;;
59074;SDS011;44860;53.020;6.738;2023-09-19T09:14:43;18.60;;;4.05;;
59074;SDS011;44860;53.020;6.738;2023-09-19T09:17:11;14.48;;;3.40;;
59074;SDS011;44860;53.020;6.738;2023-09-19T09:19:37;13.80;;;3.28;;
59074;SDS011;44860;53.020;6.738;2023-09-19T09:22:10;17.50;;;3.72;;
59074;SDS011;44860;53.020;6.738;2023-09-19T09:27:04;14.48;;;3.60;;
59074;SDS011;44860;53.020;6.738;2023-09-19T09:29:41;15.00;;;3.17;;
59074;SDS011;44860;53.020;6.738;2023-09-19T09:32:19;18.08;;;3.53;;
59074;SDS011;44860;53.020;6.738;2023-09-19T09:34:53;16.25;;;3.33;;
59074;SDS011;44860;53.020;6.738;2023-09-19T09:37:20;11.85;;;3.63;;
59074;SDS011;44860;53.020;6.738;2023-09-19T09:40:02;14.48;;;3.53;;
59074;SDS011;44860;53.020;6.738;2023-09-19T09:42:40;12.88;;;3.65;;
59074;SDS011;44860;53.020;6.738;2023-09-19T09:45:22;15.07;;;3.70;;
59074;SDS011;44860;53.020;6.738;2023-09-19T09:47:57;17.77;;;3.40;;
59074;SDS011;44860;53.020;6.738;2023-09-19T09:53:01;12.80;;;3.15;;
59074;SDS011;44860;53.020;6.738;2023-09-19T09:55:56;12.45;;;3.20;;
59074;SDS011;44860;53.020;6.738;2023-09-19T09:58:22;12.07;;;3.20;;
59074;SDS011;44860;53.020;6.738;2023-09-19T10:00:54;13.55;;;3.42;;
59074;SDS011;44860;53.020;6.738;2023-09-19T10:03:30;16.67;;;3.60;;
59074;SDS011;44860;53.020;6.738;2023-09-19T10:06:09;12.95;;;3.05;;
59074;SDS011;44860;53.020;6.738;2023-09-19T10:09:05;13.02;;;3.45;;
59074;SDS011;44860;53.020;6.738;2023-09-19T10:11:38;13.60;;;3.30;;
59074;SDS011;44860;53.020;6.738;2023-09-19T10:14:15;13.32;;;3.50;;
59074;SDS011;44860;53.020;6.738;2023-09-19T10:16:45;15.20;;;3.78;;
59074;SDS011;44860;53.020;6.738;2023-09-19T10:22:16;11.30;;;2.65;;
59074;SDS011;44860;53.020;6.738;2023-09-19T10:24:47;14.48;;;3.25;;
59074;SDS011;44860;53.020;6.738;2023-09-19T10:27:19;14.55;;;3.70;;
59074;SDS011;44860;53.020;6.738;2023-09-19T10:29:51;11.00;;;3.10;;
59074;SDS011;44860;53.020;6.738;2023-09-19T10:32:22;14.27;;;3.05;;
59074;SDS011;44860;53.020;6.738;2023-09-19T10:34:48;15.50;;;3.88;;
59074;SDS011;44860;53.020;6.738;2023-09-19T10:37:18;14.07;;;3.67;;
59074;SDS011;44860;53.020;6.738;2023-09-19T10:39:50;13.75;;;3.53;;
59074;SDS011;44860;53.020;6.738;2023-09-19T10:42:20;17.73;;;3.85;;
59074;SDS011;44860;53.020;6.738;2023-09-19T10:44:52;14.63;;;3.22;;
59074;SDS011;44860;53.020;6.738;2023-09-19T10:47:20;15.43;;;3.97;;
59074;SDS011;44860;53.020;6.738;2023-09-19T10:49:46;12.60;;;3.40;;
59074;SDS011;44860;53.020;6.738;2023-09-19T10:52:16;13.95;;;3.95;;
59074;SDS011;44860;53.020;6.738;2023-09-19T10:54:46;9.38;;;3.08;;
59074;SDS011;44860;53.020;6.738;2023-09-19T10:57:21;11.30;;;3.30;;
59074;SDS011;44860;53.020;6.738;2023-09-19T11:00:05;11.93;;;3.10;;
59074;SDS011;44860;53.020;6.738;2023-09-19T11:05:43;16.40;;;3.80;;
59074;SDS011;44860;53.020;6.738;2023-09-19T11:30:43;12.27;;;3.05;;
59074;SDS011;44860;53.020;6.738;2023-09-19T11:43:53;12.55;;;3.13;;
59074;SDS011;44860;53.020;6.738;2023-09-19T11:46:34;14.32;;;3.50;;
59074;SDS011;44860;53.020;6.738;2023-09-19T11:49:24;10.85;;;2.95;;
59074;SDS011;44860;53.020;6.738;2023-09-19T11:51:55;9.57;;;2.95;;
59074;SDS011;44860;53.020;6.738;2023-09-19T11:54:22;9.70;;;3.20;;
59074;SDS011;44860;53.020;6.738;2023-09-19T11:56:50;12.27;;;2.38;;
59074;SDS011;44860;53.020;6.738;2023-09-19T11:59:20;11.85;;;3.08;;
59074;SDS011;44860;53.020;6.738;2023-09-19T12:01:51;13.50;;;3.05;;
59074;SDS011;44860;53.020;6.738;2023-09-19T12:07:13;12.50;;;2.95;;
59074;SDS011;44860;53.020;6.738;2023-09-19T12:09:50;12.70;;;3.35;;
59074;SDS011;44860;53.020;6.738;2023-09-19T12:12:28;12.85;;;3.08;;
59074;SDS011;44860;53.020;6.738;2023-09-19T12:14:55;13.10;;;3.05;;
59074;SDS011;44860;53.020;6.738;2023-09-19T12:17:24;12.77;;;2.90;;
59074;SDS011;44860;53.020;6.738;2023-09-19T12:20:04;15.13;;;3.08;;
59074;SDS011;44860;53.020;6.738;2023-09-19T12:22:41;11.30;;;3.10;;
59074;SDS011;44860;53.020;6.738;2023-09-19T12:25:11;12.15;;;2.55;;
59074;SDS011;44860;53.020;6.738;2023-09-19T12:27:42;11.63;;;3.15;;
59074;SDS011;44860;53.020;6.738;2023-09-19T12:30:29;12.18;;;2.92;;
59074;SDS011;44860;53.020;6.738;2023-09-19T12:32:58;13.77;;;2.97;;
59074;SDS011;44860;53.020;6.738;2023-09-19T12:35:31;14.95;;;3.10;;
59074;SDS011;44860;53.020;6.738;2023-09-19T12:38:00;11.52;;;2.28;;
59074;SDS011;44860;53.020;6.738;2023-09-19T12:40:28;14.55;;;3.00;;
59074;SDS011;44860;53.020;6.738;2023-09-19T12:42:54;12.63;;;2.67;;
59074;SDS011;44860;53.020;6.738;2023-09-19T12:45:21;10.52;;;2.83;;
59074;SDS011;44860;53.020;6.738;2023-09-19T12:51:34;11.45;;;2.90;;
59074;SDS011;44860;53.020;6.738;2023-09-19T12:53:44;7.38;;;2.20;;
59074;SDS011;44860;53.020;6.738;2023-09-19T12:56:14;12.07;;;2.90;;
59074;SDS011;44860;53.020;6.738;2023-09-19T12:58:56;10.00;;;2.67;;
59074;SDS011;44860;53.020;6.738;2023-09-19T13:01:26;10.50;;;2.40;;
59074;SDS011;44860;53.020;6.738;2023-09-19T13:06:47;9.65;;;2.60;;
59074;SDS011;44860;53.020;6.738;2023-09-19T13:09:14;9.90;;;2.33;;
59074;SDS011;44860;53.020;6.738;2023-09-19T13:11:41;9.52;;;2.50;;
59074;SDS011;44860;53.020;6.738;2023-09-19T13:14:25;8.15;;;2.20;;
59074;SDS011;44860;53.020;6.738;2023-09-19T13:17:08;8.25;;;2.28;;
59074;SDS011;44860;53.020;6.738;2023-09-19T13:19:54;9.65;;;2.67;;
59074;SDS011;44860;53.020;6.738;2023-09-19T13:22:41;9.40;;;3.03;;
59074;SDS011;44860;53.020;6.738;2023-09-19T13:25:15;9.45;;;2.42;;
59074;SDS011;44860;53.020;6.738;2023-09-19T13:27:43;10.70;;;2.60;;
59074;SDS011;44860;53.020;6.738;2023-09-19T13:30:11;14.32;;;2.47;;
59074;SDS011;44860;53.020;6.738;2023-09-19T13:32:37;9.55;;;2.22;;
59074;SDS011;44860;53.020;6.738;2023-09-19T13:35:05;6.88;;;2.13;;
59074;SDS011;44860;53.020;6.738;2023-09-19T13:37:34;9.85;;;2.45;;
59074;SDS011;44860;53.020;6.738;2023-09-19T13:40:13;6.72;;;1.77;;
59074;SDS011;44860;53.020;6.738;2023-09-19T13:42:39;12.32;;;2.55;;
59074;SDS011;44860;53.020;6.738;2023-09-19T13:45:06;9.93;;;2.58;;
59074;SDS011;44860;53.020;6.738;2023-09-19T13:47:32;8.88;;;2.17;;
59074;SDS011;44860;53.020;6.738;2023-09-19T13:50:02;7.47;;;1.85;;
59074;SDS011;44860;53.020;6.738;2023-09-19T13:52:29;7.22;;;2.40;;
59074;SDS011;44860;53.020;6.738;2023-09-19T13:54:56;10.13;;;2.38;;
59074;SDS011;44860;53.020;6.738;2023-09-19T13:57:22;5.70;;;2.13;;
59074;SDS011;44860;53.020;6.738;2023-09-19T13:59:49;8.40;;;1.95;;
59074;SDS011;44860;53.020;6.738;2023-09-19T14:02:14;10.15;;;2.53;;
59074;SDS011;44860;53.020;6.738;2023-09-19T14:04:43;8.85;;;1.90;;
59074;SDS011;44860;53.020;6.738;2023-09-19T14:07:09;10.65;;;2.30;;
59074;SDS011;44860;53.020;6.738;2023-09-19T14:09:36;5.68;;;1.83;;
59074;SDS011;44860;53.020;6.738;2023-09-19T14:12:02;6.97;;;2.00;;
59074;SDS011;44860;53.020;6.738;2023-09-19T14:14:28;7.13;;;1.95;;
59074;SDS011;44860;53.020;6.738;2023-09-19T14:16:53;8.85;;;2.13;;
59074;SDS011;44860;53.020;6.738;2023-09-19T14:19:20;7.82;;;2.05;;
59074;SDS011;44860;53.020;6.738;2023-09-19T14:21:46;8.00;;;2.05;;
59074;SDS011;44860;53.020;6.738;2023-09-19T14:24:16;8.05;;;2.00;;
59074;SDS011;44860;53.020;6.738;2023-09-19T14:26:42;7.32;;;1.92;;
59074;SDS011;44860;53.020;6.738;2023-09-19T14:29:08;5.90;;;1.90;;
59074;SDS011;44860;53.020;6.738;2023-09-19T14:31:37;5.63;;;1.90;;
59074;SDS011;44860;53.020;6.738;2023-09-19T14:34:03;7.50;;;2.28;;
59074;SDS011;44860;53.020;6.738;2023-09-19T14:36:30;11.05;;;2.03;;
59074;SDS011;44860;53.020;6.738;2023-09-19T14:38:56;7.00;;;1.83;;
59074;SDS011;44860;53.020;6.738;2023-09-19T14:41:24;6.45;;;1.73;;
59074;SDS011;44860;53.020;6.738;2023-09-19T14:43:54;7.75;;;1.70;;
59074;SDS011;44860;53.020;6.738;2023-09-19T14:46:22;11.35;;;2.45;;
59074;SDS011;44860;53.020;6.738;2023-09-19T14:48:50;8.30;;;1.80;;
59074;SDS011;44860;53.020;6.738;2023-09-19T14:51:17;7.18;;;1.83;;
59074;SDS011;44860;53.020;6.738;2023-09-19T14:53:44;6.47;;;2.10;;
59074;SDS011;44860;53.020;6.738;2023-09-19T14:56:11;4.75;;;1.98;;
59074;SDS011;44860;53.020;6.738;2023-09-19T14:58:38;5.03;;;1.58;;
59074;SDS011;44860;53.020;6.738;2023-09-19T15:01:05;8.55;;;1.70;;
59074;SDS011;44860;53.020;6.738;2023-09-19T15:03:32;12.60;;;1.90;;
59074;SDS011;44860;53.020;6.738;2023-09-19T15:06:03;6.57;;;1.90;;
59074;SDS011;44860;53.020;6.738;2023-09-19T15:08:30;6.18;;;1.83;;
59074;SDS011;44860;53.020;6.738;2023-09-19T15:11:05;5.78;;;1.63;;
59074;SDS011;44860;53.020;6.738;2023-09-19T15:13:32;6.68;;;1.70;;
59074;SDS011;44860;53.020;6.738;2023-09-19T15:16:01;5.00;;;1.40;;
59074;SDS011;44860;53.020;6.738;2023-09-19T15:18:29;6.68;;;1.60;;
59074;SDS011;44860;53.020;6.738;2023-09-19T15:20:56;9.63;;;1.60;;
59074;SDS011;44860;53.020;6.738;2023-09-19T15:23:22;6.65;;;1.67;;
59074;SDS011;44860;53.020;6.738;2023-09-19T15:25:51;5.28;;;1.60;;
59074;SDS011;44860;53.020;6.738;2023-09-19T15:28:18;9.15;;;1.73;;
59074;SDS011;44860;53.020;6.738;2023-09-19T15:30:47;7.40;;;1.70;;
59074;SDS011;44860;53.020;6.738;2023-09-19T15:33:14;6.55;;;2.00;;
59074;SDS011;44860;53.020;6.738;2023-09-19T15:35:39;6.22;;;1.70;;
59074;SDS011;44860;53.020;6.738;2023-09-19T15:38:05;7.97;;;1.95;;
59074;SDS011;44860;53.020;6.738;2023-09-19T15:40:32;6.20;;;1.90;;
59074;SDS011;44860;53.020;6.738;2023-09-19T15:42:58;5.78;;;1.90;;
59074;SDS011;44860;53.020;6.738;2023-09-19T15:45:25;9.77;;;2.30;;
59074;SDS011;44860;53.020;6.738;2023-09-19T15:47:51;7.43;;;1.80;;
59074;SDS011;44860;53.020;6.738;2023-09-19T15:50:17;6.70;;;1.80;;
59074;SDS011;44860;53.020;6.738;2023-09-19T15:52:42;6.72;;;1.80;;
59074;SDS011;44860;53.020;6.738;2023-09-19T15:55:08;5.30;;;1.77;;
59074;SDS011;44860;53.020;6.738;2023-09-19T15:57:38;6.43;;;2.10;;
59074;SDS011;44860;53.020;6.738;2023-09-19T16:00:04;8.30;;;2.03;;
59074;SDS011;44860;53.020;6.738;2023-09-19T16:02:39;8.45;;;2.05;;
59074;SDS011;44860;53.020;6.738;2023-09-19T16:05:05;6.35;;;1.80;;